createdAt,value
2019-03-28T00:01:27.293Z,47.56
2019-03-28T00:03:53.594Z,47.34
2019-03-28T00:06:19.899Z,47.29
2019-03-28T00:08:46.264Z,47.43
2019-03-28T00:11:12.515Z,47.50
2019-03-28T00:13:38.821Z,47.39
2019-03-28T00:16:05.146Z,47.59
2019-03-28T00:18:31.603Z,47.89
2019-03-28T00:20:57.912Z,47.77
2019-03-28T00:23:24.221Z,47.74
2019-03-28T00:25:50.524Z,47.60
2019-03-28T00:28:16.838Z,47.80
2019-03-28T00:30:43.149Z,47.93
2019-03-28T00:33:09.455Z,47.74
2019-03-28T00:35:35.758Z,47.62
2019-03-28T00:38:02.067Z,47.59
2019-03-28T00:40:28.374Z,47.50
2019-03-28T00:42:54.685Z,47.57
2019-03-28T00:45:21.006Z,47.90
2019-03-28T00:47:47.378Z,47.63
2019-03-28T00:50:13.707Z,47.77
2019-03-28T00:52:40.033Z,47.74
2019-03-28T00:55:06.347Z,47.53
2019-03-28T00:57:32.654Z,47.95
2019-03-28T00:59:58.963Z,47.89
2019-03-28T01:02:25.270Z,47.39
2019-03-28T01:04:52.091Z,47.44
2019-03-28T01:07:17.886Z,48.05
2019-03-28T01:09:44.188Z,48.04
2019-03-28T01:12:10.496Z,47.74
2019-03-28T01:14:36.798Z,47.36
2019-03-28T01:17:03.539Z,47.41
2019-03-28T01:19:29.850Z,47.24
2019-03-28T01:21:56.163Z,47.46
2019-03-28T01:24:22.463Z,47.51
2019-03-28T01:26:57.281Z,47.36
2019-03-28T01:29:15.067Z,47.32
2019-03-28T01:31:41.367Z,47.18
2019-03-28T01:34:08.132Z,47.58
2019-03-28T01:36:33.988Z,47.47
2019-03-28T01:39:00.299Z,47.47
2019-03-28T01:41:26.604Z,47.82
2019-03-28T01:43:52.906Z,48.10
2019-03-28T01:46:19.206Z,48.21
2019-03-28T01:48:45.509Z,49.19
2019-03-28T01:51:11.812Z,49.82
2019-03-28T01:53:38.230Z,51.31
2019-03-28T01:56:04.424Z,53.09
2019-03-28T01:58:30.729Z,54.80
2019-03-28T02:00:57.042Z,56.86
2019-03-28T02:03:23.388Z,58.21
2019-03-28T02:05:49.695Z,59.08
2019-03-28T02:08:15.999Z,59.52
2019-03-28T02:10:42.307Z,60.57
2019-03-28T02:13:08.615Z,60.96
2019-03-28T02:15:34.918Z,61.57
2019-03-28T02:18:01.221Z,61.33
2019-03-28T02:20:27.568Z,61.64
2019-03-28T02:22:53.963Z,61.55
2019-03-28T02:25:20.348Z,62.08
2019-03-28T02:27:46.588Z,62.09
2019-03-28T02:30:13.140Z,61.82
2019-03-28T02:32:39.470Z,61.89
2019-03-28T02:35:05.785Z,61.96
2019-03-28T02:37:32.080Z,61.67
2019-03-28T02:39:58.399Z,61.82
2019-03-28T02:42:24.707Z,62.12
2019-03-28T02:44:51.017Z,61.97
2019-03-28T02:47:17.339Z,62.80
2019-03-28T02:49:43.636Z,62.54
2019-03-28T02:52:09.939Z,62.26
2019-03-28T02:54:36.265Z,62.15
2019-03-28T02:57:02.565Z,62.18
2019-03-28T02:59:28.873Z,61.86
2019-03-28T03:01:55.182Z,62.17
2019-03-28T03:04:21.491Z,62.07
2019-03-28T03:06:47.802Z,61.70
2019-03-28T03:09:14.110Z,61.62
2019-03-28T03:11:42.835Z,61.46
2019-03-28T03:14:06.717Z,61.60
2019-03-28T03:16:33.065Z,61.73
2019-03-28T03:18:59.839Z,61.83
2019-03-28T03:21:25.695Z,61.53
2019-03-28T03:23:52.000Z,61.46
2019-03-28T03:26:18.298Z,61.68
2019-03-28T03:28:44.628Z,61.99
2019-03-28T03:31:10.939Z,62.21
2019-03-28T03:33:37.894Z,62.46
2019-03-28T03:36:03.554Z,62.52
2019-03-28T03:38:29.888Z,62.14
2019-03-28T03:40:56.186Z,62.11
2019-03-28T03:43:23.582Z,62.16
2019-03-28T03:45:49.808Z,62.13
2019-03-28T03:48:16.113Z,62.56
2019-03-28T03:50:42.419Z,62.45
2019-03-28T03:53:08.727Z,63.15
2019-03-28T03:55:35.028Z,62.97
2019-03-28T03:58:14.569Z,62.77
2019-03-28T04:00:27.787Z,62.88
2019-03-28T04:02:54.089Z,62.42
2019-03-28T04:05:20.398Z,62.38
2019-03-28T04:07:46.700Z,62.37
2019-03-28T04:10:13.055Z,62.43
2019-03-28T04:12:39.361Z,62.44
2019-03-28T04:15:05.670Z,62.37
2019-03-28T04:17:31.975Z,62.67
2019-03-28T04:19:58.761Z,62.62
2019-03-28T04:22:24.589Z,62.38
2019-03-28T04:24:50.898Z,62.60
2019-03-28T04:27:17.202Z,63.22
2019-03-28T04:29:43.507Z,63.49
2019-03-28T04:32:09.851Z,63.72
2019-03-28T04:34:36.168Z,64.06
2019-03-28T04:37:02.464Z,63.70
2019-03-28T04:39:28.773Z,63.85
2019-03-28T04:41:55.075Z,64.01
2019-03-28T04:44:21.723Z,64.27
2019-03-28T04:46:47.698Z,65.11
2019-03-28T04:49:15.676Z,64.54
2019-03-28T04:51:40.382Z,64.13
2019-03-28T04:54:09.620Z,64.16
2019-03-28T04:56:33.021Z,64.20
2019-03-28T04:58:59.354Z,63.88
2019-03-28T05:01:25.709Z,64.36
2019-03-28T05:03:51.980Z,64.21
2019-03-28T05:06:18.300Z,64.02
2019-03-28T05:08:44.603Z,63.56
2019-03-28T05:11:10.911Z,63.15
2019-03-28T05:13:37.217Z,62.98
2019-03-28T05:16:03.544Z,62.67
2019-03-28T05:18:29.856Z,62.51
2019-03-28T05:20:56.162Z,62.58
2019-03-28T05:23:22.463Z,62.83
2019-03-28T05:25:48.771Z,63.17
2019-03-28T05:28:15.075Z,63.65
2019-03-28T05:30:41.406Z,64.46
2019-03-28T05:33:07.720Z,64.24
2019-03-28T05:35:34.023Z,65.26
2019-03-28T05:38:00.336Z,65.35
2019-03-28T05:40:26.660Z,65.93
2019-03-28T05:42:52.969Z,66.37
2019-03-28T05:45:19.284Z,66.84
2019-03-28T05:47:45.611Z,68.91
2019-03-28T05:50:11.915Z,68.53
2019-03-28T05:52:38.219Z,70.59
2019-03-28T05:55:05.470Z,72.12
2019-03-28T05:57:30.837Z,72.10
2019-03-28T05:59:57.143Z,72.28
2019-03-28T06:02:24.318Z,72.14
2019-03-28T06:04:49.793Z,70.27
2019-03-28T06:07:16.095Z,70.10
2019-03-28T06:09:42.839Z,71.35
2019-03-28T06:12:09.145Z,69.50
2019-03-28T06:14:35.455Z,68.54
2019-03-28T06:17:01.769Z,67.72
2019-03-28T06:19:28.071Z,67.72
2019-03-28T06:21:55.076Z,66.30
2019-03-28T06:24:21.380Z,65.28
2019-03-28T06:26:50.037Z,63.76
2019-03-28T06:29:23.676Z,63.63
2019-03-28T06:31:40.369Z,63.82
2019-03-28T06:34:06.686Z,63.28
2019-03-28T06:36:32.995Z,63.45
2019-03-28T06:38:59.348Z,63.01
2019-03-28T06:41:25.653Z,62.58
2019-03-28T06:43:51.962Z,63.86
2019-03-28T06:46:18.271Z,64.52
2019-03-28T06:48:44.583Z,64.89
2019-03-28T06:51:10.886Z,65.35
2019-03-28T06:53:37.302Z,65.92
2019-03-28T06:56:03.501Z,65.60
2019-03-28T06:58:29.862Z,64.52
2019-03-28T07:00:56.172Z,64.23
2019-03-28T07:03:22.475Z,63.67
2019-03-28T07:05:48.785Z,64.13
2019-03-28T07:08:15.092Z,64.68
2019-03-28T07:10:41.448Z,64.74
2019-03-28T07:13:07.749Z,64.94
2019-03-28T07:15:36.610Z,63.36
2019-03-28T07:18:00.395Z,63.44
2019-03-28T07:20:26.706Z,63.06
2019-03-28T07:22:53.025Z,62.48
2019-03-28T07:25:19.325Z,63.03
2019-03-28T07:27:45.632Z,63.31
2019-03-28T07:30:11.947Z,63.61
2019-03-28T07:32:38.595Z,63.48
2019-03-28T07:35:04.927Z,63.39
2019-03-28T07:37:31.256Z,63.66
2019-03-28T07:39:57.562Z,64.53
2019-03-28T07:42:23.867Z,64.27
2019-03-28T07:44:50.180Z,63.94
2019-03-28T07:47:16.471Z,63.98
2019-03-28T07:49:42.781Z,63.57
2019-03-28T07:52:09.085Z,63.03
2019-03-28T07:54:35.407Z,62.39
2019-03-28T07:57:01.713Z,62.03
2019-03-28T07:59:28.166Z,61.01
2019-03-28T08:01:54.472Z,60.54
2019-03-28T08:04:20.843Z,60.52
2019-03-28T08:06:50.212Z,60.05
2019-03-28T08:09:13.456Z,60.00
2019-03-28T08:11:39.795Z,60.31
2019-03-28T08:14:06.311Z,60.18
2019-03-28T08:16:32.661Z,60.01
2019-03-28T08:18:58.962Z,60.87
2019-03-28T08:21:25.421Z,60.28
2019-03-28T08:23:51.728Z,58.85
2019-03-28T08:26:18.117Z,58.81
2019-03-28T08:28:44.427Z,58.62
2019-03-28T08:31:10.737Z,59.03
2019-03-28T08:33:37.045Z,57.33
2019-03-28T08:36:03.371Z,58.10
2019-03-28T08:38:29.680Z,58.21
2019-03-28T08:40:56.114Z,57.49
2019-03-28T08:43:25.281Z,57.29
2019-03-28T08:45:51.605Z,57.05
2019-03-28T08:48:18.010Z,55.35
2019-03-28T08:50:44.290Z,56.00
2019-03-28T08:53:10.597Z,54.38
2019-03-28T08:55:36.905Z,53.78
2019-03-28T08:58:03.202Z,54.81
2019-03-28T09:03:13.463Z,55.83
2019-03-28T09:05:39.773Z,54.67
2019-03-28T09:08:06.105Z,54.07
2019-03-28T09:10:32.402Z,54.89
2019-03-28T09:15:44.260Z,51.92
2019-03-28T09:18:09.499Z,50.67
2019-03-28T09:20:35.841Z,49.49
2019-03-28T09:23:02.151Z,49.46
2019-03-28T09:25:28.492Z,49.29
2019-03-28T09:27:54.815Z,49.14
2019-03-28T09:30:21.118Z,47.34
2019-03-28T09:32:47.436Z,47.70
2019-03-28T09:35:13.745Z,47.78
2019-03-28T09:37:40.053Z,47.12
2019-03-28T09:40:06.368Z,45.33
2019-03-28T09:42:32.696Z,44.80
2019-03-28T09:44:59.018Z,43.80
2019-03-28T09:47:25.329Z,43.74
2019-03-28T09:49:51.642Z,42.19
2019-03-28T09:52:17.989Z,43.46
2019-03-28T09:54:44.260Z,42.12
2019-03-28T09:57:10.597Z,42.87
2019-03-28T09:59:36.913Z,41.48
2019-03-28T10:02:03.359Z,42.68
2019-03-28T10:04:29.601Z,42.45
2019-03-28T10:06:55.908Z,42.62
2019-03-28T10:09:22.221Z,43.30
2019-03-28T10:11:48.531Z,40.76
2019-03-28T10:14:15.899Z,42.52
2019-03-28T10:16:42.203Z,42.45
2019-03-28T10:19:08.512Z,41.93
2019-03-28T10:21:37.550Z,40.56
2019-03-28T10:24:01.425Z,40.81
2019-03-28T10:26:27.731Z,40.11
2019-03-28T10:28:54.040Z,39.15
2019-03-28T10:31:20.420Z,39.44
2019-03-28T10:33:46.726Z,39.62
2019-03-28T10:36:13.029Z,39.63
2019-03-28T10:38:39.344Z,37.84
2019-03-28T10:41:05.648Z,39.16
2019-03-28T10:43:31.978Z,39.00
2019-03-28T10:45:58.283Z,40.06
2019-03-28T10:48:24.611Z,39.42
2019-03-28T10:50:50.914Z,39.36
2019-03-28T10:53:17.246Z,37.57
2019-03-28T10:55:43.551Z,36.33
2019-03-28T10:58:18.423Z,36.04
2019-03-28T11:00:36.167Z,35.73
2019-03-28T11:03:02.548Z,36.34
2019-03-28T11:05:28.785Z,36.84
2019-03-28T11:07:55.091Z,35.65
2019-03-28T11:10:21.412Z,36.23
2019-03-28T11:12:47.716Z,37.70
2019-03-28T11:15:14.046Z,37.21
2019-03-28T11:17:40.349Z,34.36
2019-03-28T11:20:06.661Z,34.26
2019-03-28T11:22:32.968Z,34.90
2019-03-28T11:24:59.278Z,36.97
2019-03-28T11:27:25.597Z,37.12
2019-03-28T11:29:52.024Z,36.57
2019-03-28T11:32:18.754Z,37.58
2019-03-28T11:34:44.661Z,38.81
2019-03-28T11:37:24.923Z,38.77
2019-03-28T11:39:37.276Z,39.15
2019-03-28T11:42:03.607Z,38.84
2019-03-28T11:44:29.921Z,38.71
2019-03-28T11:46:56.236Z,38.88
2019-03-28T11:49:22.549Z,40.30
2019-03-28T11:51:48.851Z,40.26
2019-03-28T11:54:15.166Z,40.67
2019-03-28T11:56:41.475Z,41.40
2019-03-28T11:59:07.813Z,41.96
2019-03-28T12:01:34.121Z,41.17
2019-03-28T12:04:00.423Z,38.87
2019-03-28T12:06:26.740Z,36.78
2019-03-28T12:08:55.851Z,39.34
2019-03-28T12:11:19.386Z,40.58
2019-03-28T12:13:45.693Z,39.49
2019-03-28T12:16:12.001Z,38.89
2019-03-28T12:18:38.310Z,38.25
2019-03-28T12:21:04.641Z,37.33
2019-03-28T12:23:30.943Z,36.55
2019-03-28T12:25:57.253Z,36.88
2019-03-28T12:28:23.619Z,36.70
2019-03-28T12:30:49.870Z,36.84
2019-03-28T12:33:16.176Z,37.82
2019-03-28T12:35:42.488Z,38.72
2019-03-28T12:38:08.800Z,40.04
2019-03-28T12:40:35.106Z,39.01
2019-03-28T12:43:01.443Z,38.72
2019-03-28T12:45:27.751Z,39.33
2019-03-28T12:47:54.057Z,38.87
2019-03-28T12:50:20.366Z,38.55
2019-03-28T12:52:46.672Z,38.62
2019-03-28T12:55:12.983Z,38.36
2019-03-28T12:57:39.283Z,37.96
2019-03-28T13:00:06.762Z,36.76
2019-03-28T13:02:32.169Z,36.89
2019-03-28T13:04:58.300Z,37.70
2019-03-28T13:07:25.496Z,38.04
2019-03-28T13:09:50.927Z,38.09
2019-03-28T13:12:17.235Z,38.30
2019-03-28T13:14:43.543Z,37.85
2019-03-28T13:17:09.847Z,37.34
2019-03-28T13:19:36.156Z,36.64
2019-03-28T13:22:02.550Z,36.51
2019-03-28T13:24:28.771Z,35.38
2019-03-28T13:26:55.082Z,35.19
2019-03-28T13:29:21.383Z,36.08
2019-03-28T13:31:47.734Z,37.42
2019-03-28T13:34:14.039Z,36.37
2019-03-28T13:36:40.343Z,37.35
2019-03-28T13:39:06.656Z,37.88
2019-03-28T13:41:32.964Z,38.89
2019-03-28T13:43:59.277Z,38.59
2019-03-28T13:46:25.635Z,38.43
2019-03-28T13:48:51.963Z,38.07
2019-03-28T13:51:19.314Z,38.45
2019-03-28T13:53:45.635Z,37.52
2019-03-28T13:56:11.943Z,37.94
2019-03-28T13:58:38.827Z,38.03
2019-03-28T14:01:04.600Z,37.52
2019-03-28T14:03:30.903Z,37.85
2019-03-28T14:05:57.219Z,37.65
2019-03-28T14:08:23.568Z,36.81
2019-03-28T14:10:49.878Z,37.22
2019-03-28T14:13:16.184Z,37.27
2019-03-28T14:15:45.317Z,36.98
2019-03-28T14:18:11.621Z,37.29
2019-03-28T14:20:37.931Z,37.13
2019-03-28T14:23:04.235Z,37.20
2019-03-28T14:25:30.549Z,37.62
2019-03-28T14:27:56.869Z,36.98
2019-03-28T14:30:23.177Z,36.04
2019-03-28T14:32:53.514Z,36.03
2019-03-28T14:35:16.073Z,34.84
2019-03-28T14:37:42.407Z,34.36
2019-03-28T14:40:08.711Z,33.67
2019-03-28T14:42:35.053Z,33.47
2019-03-28T14:45:01.372Z,33.83
2019-03-28T14:47:27.677Z,34.06
2019-03-28T14:49:53.987Z,34.42
2019-03-28T14:52:20.298Z,34.34
2019-03-28T14:54:46.608Z,34.31
2019-03-28T14:57:12.963Z,34.46
2019-03-28T14:59:39.271Z,34.12
2019-03-28T15:02:05.578Z,34.22
2019-03-28T15:04:32.033Z,34.29
2019-03-28T15:06:59.625Z,33.49
2019-03-28T15:09:24.761Z,33.63
2019-03-28T15:11:51.073Z,33.83
2019-03-28T15:14:17.383Z,33.77
2019-03-28T15:16:43.692Z,33.94
2019-03-28T15:19:10.000Z,34.35
2019-03-28T15:21:36.303Z,34.62
2019-03-28T15:24:02.612Z,34.53
2019-03-28T15:26:30.239Z,34.52
2019-03-28T15:28:55.225Z,34.30
2019-03-28T15:31:21.686Z,34.32
2019-03-28T15:33:47.850Z,34.60
2019-03-28T15:36:14.420Z,34.89
2019-03-28T15:38:40.774Z,34.84
2019-03-28T15:41:07.085Z,34.99
2019-03-28T15:43:33.394Z,34.95
2019-03-28T15:45:59.763Z,34.70
2019-03-28T15:48:26.013Z,35.01
2019-03-28T15:50:52.378Z,35.44
2019-03-28T15:53:18.686Z,35.63
2019-03-28T15:55:44.993Z,36.34
2019-03-28T15:58:22.525Z,36.65
2019-03-28T16:00:37.608Z,36.93
2019-03-28T16:03:03.915Z,37.18
2019-03-28T16:05:30.219Z,37.49
2019-03-28T16:07:59.188Z,37.64
2019-03-28T16:10:22.839Z,37.77
2019-03-28T16:12:49.147Z,37.82
2019-03-28T16:15:16.522Z,37.91
2019-03-28T16:17:42.837Z,37.85
2019-03-28T16:20:09.144Z,37.89
2019-03-28T16:22:35.452Z,37.87
2019-03-28T16:25:01.758Z,38.23
2019-03-28T16:27:28.134Z,38.34
2019-03-28T16:29:54.587Z,38.49
2019-03-28T16:32:20.768Z,38.58
2019-03-28T16:34:47.114Z,38.82
2019-03-28T16:37:13.447Z,38.84
2019-03-28T16:39:39.755Z,39.18
2019-03-28T16:42:06.092Z,39.26
2019-03-28T16:44:32.367Z,39.65
2019-03-28T16:46:58.680Z,39.98
2019-03-28T16:49:24.995Z,39.99
2019-03-28T16:51:51.820Z,40.57
2019-03-28T16:54:17.642Z,40.75
2019-03-28T16:56:43.943Z,41.06
2019-03-28T16:59:10.256Z,41.41
2019-03-28T17:01:36.563Z,41.88
2019-03-28T17:04:02.878Z,42.10
2019-03-28T17:06:29.185Z,42.37
2019-03-28T17:08:55.487Z,42.46
2019-03-28T17:11:21.800Z,42.68
2019-03-28T17:13:48.102Z,42.78
2019-03-28T17:16:14.451Z,42.80
2019-03-28T17:18:40.750Z,42.90
2019-03-28T17:21:07.106Z,43.14
2019-03-28T17:23:33.476Z,42.96
2019-03-28T17:25:59.888Z,43.31
2019-03-28T17:28:26.232Z,43.23
2019-03-28T17:30:53.187Z,43.54
2019-03-28T17:33:18.881Z,43.41
2019-03-28T17:35:45.235Z,43.74
2019-03-28T17:38:11.603Z,43.77
2019-03-28T17:40:37.948Z,43.85
2019-03-28T17:43:04.290Z,44.22
2019-03-28T17:45:30.635Z,44.38
2019-03-28T17:47:56.974Z,44.96
2019-03-28T17:50:23.270Z,45.00
2019-03-28T17:52:49.706Z,45.19
2019-03-28T17:55:16.048Z,45.27
2019-03-28T17:57:42.392Z,45.31
2019-03-28T18:00:08.735Z,45.90
2019-03-28T18:02:35.076Z,45.79
2019-03-28T18:05:09.182Z,46.16
2019-03-28T18:07:27.795Z,46.08
2019-03-28T18:09:53.989Z,46.19
2019-03-28T18:12:20.308Z,46.22
2019-03-28T18:14:46.636Z,46.46
2019-03-28T18:17:12.940Z,46.59
2019-03-28T18:19:39.246Z,46.77
2019-03-28T18:22:05.555Z,46.86
2019-03-28T18:24:31.877Z,46.85
2019-03-28T18:26:58.187Z,46.83
2019-03-28T18:29:24.491Z,47.12
2019-03-28T18:31:52.614Z,47.26
2019-03-28T18:34:17.120Z,47.30
2019-03-28T18:36:43.487Z,47.60
2019-03-28T18:39:09.807Z,47.77
2019-03-28T18:41:36.199Z,47.96
2019-03-28T18:44:02.572Z,47.84
2019-03-28T18:46:28.878Z,47.91
2019-03-28T18:48:55.180Z,47.97
2019-03-28T18:51:21.484Z,48.06
2019-03-28T18:53:47.797Z,48.37
2019-03-28T18:56:14.155Z,48.55
2019-03-28T18:58:40.570Z,48.25
2019-03-28T19:01:06.879Z,48.15
2019-03-28T19:03:33.201Z,48.02
2019-03-28T19:05:59.715Z,48.29
2019-03-28T19:08:26.017Z,48.09
2019-03-28T19:10:52.320Z,48.13
2019-03-28T19:13:18.626Z,48.10
2019-03-28T19:15:44.935Z,48.44
2019-03-28T19:18:11.242Z,48.47
2019-03-28T19:20:37.547Z,48.10
2019-03-28T19:23:06.995Z,48.49
2019-03-28T19:25:30.188Z,48.00
2019-03-28T19:27:56.501Z,48.03
2019-03-28T19:30:22.801Z,47.97
2019-03-28T19:32:49.149Z,48.16
2019-03-28T19:35:15.402Z,48.36
2019-03-28T19:37:41.947Z,49.95
2019-03-28T19:40:08.266Z,47.90
2019-03-28T19:42:34.706Z,47.51
2019-03-28T19:45:01.045Z,46.19
2019-03-28T19:47:28.735Z,47.04
2019-03-28T19:49:53.650Z,45.71
2019-03-28T19:52:19.989Z,45.39
2019-03-28T19:54:46.310Z,45.22
2019-03-28T19:57:13.178Z,43.50
2019-03-28T19:59:38.923Z,43.16
2019-03-28T20:02:05.239Z,42.67
2019-03-28T20:04:31.723Z,42.02
2019-03-28T20:06:58.052Z,43.20
2019-03-28T20:09:24.439Z,42.72
2019-03-28T20:11:50.743Z,43.14
2019-03-28T20:14:17.106Z,42.67
2019-03-28T20:16:43.416Z,43.28
2019-03-28T20:19:09.730Z,44.99
2019-03-28T20:21:36.063Z,43.43
2019-03-28T20:24:02.381Z,43.05
2019-03-28T20:26:29.755Z,43.13
2019-03-28T20:28:55.444Z,43.80
2019-03-28T20:31:21.765Z,43.20
2019-03-28T20:33:48.074Z,43.58
2019-03-28T20:36:36.437Z,43.39
2019-03-28T20:38:40.706Z,43.51
2019-03-28T20:41:07.067Z,44.12
2019-03-28T20:43:33.377Z,44.35
2019-03-28T20:45:59.680Z,44.67
2019-03-28T20:48:26.219Z,45.37
2019-03-28T20:50:52.527Z,45.52
2019-03-28T20:53:18.835Z,45.84
2019-03-28T20:55:45.236Z,45.64
2019-03-28T20:58:11.469Z,46.21
2019-03-28T21:00:38.919Z,46.40
2019-03-28T21:03:04.092Z,46.67
2019-03-28T21:05:30.393Z,46.98
2019-03-28T21:07:56.736Z,46.75
2019-03-28T21:10:23.046Z,47.79
2019-03-28T21:12:49.409Z,47.36
2019-03-28T21:15:15.710Z,46.96
2019-03-28T21:17:42.034Z,46.92
2019-03-28T21:20:08.331Z,47.24
2019-03-28T21:22:34.637Z,46.89
2019-03-28T21:25:01.860Z,47.10
2019-03-28T21:27:28.164Z,47.39
2019-03-28T21:29:54.486Z,47.13
2019-03-28T21:32:20.874Z,48.09
2019-03-28T21:34:47.210Z,48.05
2019-03-28T21:37:13.521Z,47.76
2019-03-28T21:39:40.324Z,47.66
2019-03-28T21:42:07.384Z,47.62
2019-03-28T21:44:32.561Z,48.34
2019-03-28T21:46:58.915Z,48.21
2019-03-28T21:49:25.181Z,48.07
2019-03-28T21:51:51.491Z,47.86
2019-03-28T21:54:17.834Z,48.04
2019-03-28T21:56:44.158Z,48.28
2019-03-28T21:59:10.467Z,48.34
2019-03-28T22:01:36.801Z,48.71
2019-03-28T22:04:03.106Z,48.64
2019-03-28T22:06:42.096Z,48.15
2019-03-28T22:08:55.722Z,48.50
2019-03-28T22:11:22.025Z,49.62
2019-03-28T22:13:48.326Z,49.11
2019-03-28T22:16:14.631Z,49.26
2019-03-28T22:18:40.938Z,48.98
2019-03-28T22:21:07.243Z,48.77
2019-03-28T22:23:33.592Z,48.33
2019-03-28T22:25:59.899Z,48.77
2019-03-28T22:28:26.264Z,49.98
2019-03-28T22:30:52.578Z,49.37
2019-03-28T22:33:18.895Z,50.30
2019-03-28T22:35:45.197Z,49.22
2019-03-28T22:38:11.499Z,49.24
2019-03-28T22:40:37.880Z,49.49
2019-03-28T22:43:04.267Z,49.99
2019-03-28T22:45:30.595Z,50.68
2019-03-28T22:48:09.788Z,50.45
2019-03-28T22:50:23.953Z,50.17
2019-03-28T22:52:49.551Z,50.63
2019-03-28T22:55:15.878Z,51.01
2019-03-28T22:57:42.182Z,50.73
2019-03-28T23:00:08.482Z,51.05
2019-03-28T23:02:34.801Z,51.20
2019-03-28T23:05:01.110Z,51.47
2019-03-28T23:07:27.431Z,52.15
2019-03-28T23:09:53.735Z,51.86
2019-03-28T23:12:20.066Z,51.89
2019-03-28T23:14:46.366Z,53.12
2019-03-28T23:17:12.695Z,52.39
2019-03-28T23:19:38.970Z,52.39
2019-03-28T23:22:05.273Z,52.58
2019-03-28T23:24:31.582Z,52.92
2019-03-28T23:26:57.878Z,52.59
2019-03-28T23:29:24.187Z,53.08
2019-03-28T23:31:50.814Z,53.73
2019-03-28T23:34:16.827Z,52.65
2019-03-28T23:36:43.145Z,52.63
2019-03-28T23:39:09.683Z,52.60
2019-03-28T23:41:35.986Z,53.01
2019-03-28T23:44:02.303Z,52.91
2019-03-28T23:46:28.621Z,53.66
2019-03-28T23:48:54.922Z,53.17
2019-03-28T23:51:21.273Z,53.21
2019-03-28T23:53:47.578Z,53.26
2019-03-28T23:56:14.018Z,53.03
2019-03-28T23:58:40.325Z,53.40
